Flight Number: EUR1568 Duration: 2:45
Departure: Heraklion (Crete) (LGIR) at 08:00 Distance: 1393 Nm
Arrival: Basel-Mulhouse (LFSB) at 10:45 Equipment: A321

Weather Information
Heraklion Airport , Greece (LGIR) 35-20N 025-11E 39M May 23, 2018 - 07:50 PM EDT / 2018.05.23 2350 UTC
Wind: Calm:0
Visibility: greater than 7 mile(s):0
Sky conditions: mostly clear Temperature: 71 F (22 C) Dew Point: 68 F (20 C) Relative Humidity: 88% Pressure (altimeter): 29.91 in. Hg (1013 hPa)
ob: LGIR 232350Z 00000KT 9999 FEW025 22/20 Q1013 NOSIG cycle: 0
Sunrise: 03:11 Sunset: 17:20 (UTC)

Bale-Mulhouse, France (LFSB) 47-36N 007-31E 271M May 23, 2018 - 08:00 PM EDT / 2018.05.24 0000 UTC
Wind: Calm:0
Visibility: 5 mile(s):0 Weather: Towering cumulus clouds observed Temperature: 60 F (16 C) Dew Point: 59 F (15 C) Relative Humidity: 93% Pressure (altimeter): 30.06 in. Hg (1018 hPa)
ob: LFSB 240000Z AUTO 00000KT 9000 ///TCU 16/15 Q1018 TEMPO 4500 SHRA BECMG FEW050 BKN100 cycle: 0
Sunrise: 03:46 Sunset: 19:07 (UTC)

TAF:2018/05/23 18:21 TAF LFSB 231700Z 2318/2418 30005KT 9999 FEW035CB SCT100 BECMG 2318/2320 FEW035 BKN090 TEMPO 2318/2403 5000 SHRA PROB30 TEMPO 2318/2324 TSRA SCT035CB PROB30 TEMPO 2403/2405 MIFG BECMG 2408/2411 FEW040CB TEMPO 2411/2418 -SHRA

Previous Pireps for this route
Date Aircraft Flight time Fuel used Landing rate On time
2013-03-23A32103.1327288-278Charter
2016-05-15A32102.4716007-129Yes
(pireps marked green are flown by you)

Route map